Pregled zadnjih 96 podatkov za postajo Žalec (nova) (10027)

Čas Temperatura tal (10 cm) (°C)  Temperatura (2 m) (°C)  Sončno sevanje (W/m2)  Smer vetra (3 m) (°)  Relativna zračna vlaga (2 m) (%RH)  Padavine (mm)  Omočenost lista (1,5 m) (U)  Hitrost vetra (3 m) (km/h)  Temp. rosišča (2m) (°C)  Temp. mokrega term. (2m) (°C) 
1.10.2022 16:00 19 19,5 246 267 63 0 0 11,3 12,3 15,2
1.10.2022 15:30 18,9 20 400 283 61 0 0 13,3 12,4 15,4
1.10.2022 15:00 18,8 20,2 478 295 62 0 0 14,1 12,6 15,6
1.10.2022 14:30 18,7 20,5 584 249 62 0 0 12,2 13 15,9
1.10.2022 14:00 18,5 20,2 516 282 64 0 0 13,8 13,1 15,9
1.10.2022 13:30 18,3 20,6 623 286 65 0 0 12,9 13,6 16,3
1.10.2022 13:00 18 20,5 603 287 69 0 0 9,9 14,7 16,9
1.10.2022 12:30 17,9 19,9 611 257 74 0 0 11,8 15,1 16,9
1.10.2022 12:00 17,6 18,2 210 201 86 0 0 2,1 15,9 16,8
1.10.2022 11:30 17,4 17,8 288 80 90 0 0 3,1 16,2 16,8
1.10.2022 11:00 17,2 17,7 682 181 91 0 0 3,8 16,2 16,7
1.10.2022 10:30 17 15,8 407 158 99 0 0 2,6 15,7 15,8
1.10.2022 10:00 16,9 14,6 207 198 100 0 1 2,5 14,6 14,6
1.10.2022 9:30 16,9 14,1 76 14 100 0 9 1,1 14,1 14,1
1.10.2022 9:00 16,8 14 52 38 100 0 10 1,5 14 14
1.10.2022 8:30 16,8 13,8 44 284 100 0 10 2 13,8 13,8
1.10.2022 8:00 16,8 13,8 14 206 100 0 10 1,3 13,8 13,8
1.10.2022 7:30 16,8 13,7 2 170 100 0 10 1,1 13,7 13,7
1.10.2022 7:00 16,9 13,6 0 14 100 0 10 0,4 13,6 13,6
1.10.2022 6:30 16,9 13,6 0 344 100 0 9 1 13,6 13,6
1.10.2022 6:00 16,9 13,6 0 115 100 0 9 1,1 13,6 13,6
1.10.2022 5:30 17 13,6 0 255 100 0 9 1,4 13,6 13,6
1.10.2022 5:00 17 13,5 0 34 100 0 9 2 13,5 13,5
1.10.2022 4:30 17,1 13,6 0 339 100 0 9 1,7 13,6 13,6
1.10.2022 4:00 17,1 13,7 0 206 100 0 9 2 13,7 13,7
1.10.2022 3:30 17,2 13,9 0 305 100 0 9 2,3 13,9 13,9
1.10.2022 3:00 17,2 14 0 295 100 0 9 1,8 14 14
1.10.2022 2:30 17,2 14,2 0 302 100 0 9 1,3 14,2 14,2
1.10.2022 2:00 17,3 14,2 0 194 100 0 9 0,9 14,2 14,2
1.10.2022 1:30 17,3 14,2 0 145 100 0 8 0,9 14,2 14,3
1.10.2022 1:00 17,3 14,3 0 3 100 0 8 1,3 14,3 14,3
1.10.2022 0:30 17,4 14,4 0 318 100 0 8 1,6 14,4 14,4
1.10.2022 0:00 17,4 14,3 0 273 100 0,2 9 0,7 14,3 14,4
30.9.2022 23:30 17,5 14,4 0 179 100 0 9 1,8 14,4 14,4
30.9.2022 23:00 17,5 14,5 0 276 100 0 7 3,1 14,5 14,5
30.9.2022 22:30 17,5 14,7 0 310 100 0 6 1,4 14,7 14,7
30.9.2022 22:00 17,6 14,6 0 268 100 0 6 0,8 14,6 14,7
30.9.2022 21:30 17,7 14,6 0 350 100 0 6 1,2 14,6 14,6
30.9.2022 21:00 17,7 14,6 0 65 100 0 6 1,7 14,6 14,6
30.9.2022 20:30 17,8 14,6 0 57 100 0 4 0,5 14,6 14,6
30.9.2022 20:00 17,9 14,7 0 207 100 0,2 4 1,2 14,7 14,7
30.9.2022 19:30 18 14,9 0 316 100 0,8 4 1,2 14,9 14,9
30.9.2022 19:00 18,1 15,1 1 182 100 1,4 6 2,7 15,1 15,1
30.9.2022 18:30 18,1 15,2 6 232 100 0,2 6 2,5 15,2 15,3
30.9.2022 18:00 18,2 15,5 16 332 100 0 7 3,8 15,5 15,5
30.9.2022 17:30 18,2 16,2 29 301 97 0,4 8 3 15,7 15,9
30.9.2022 17:00 18,3 16,8 41 43 94 0 10 3,3 15,9 16,2
30.9.2022 16:30 18,3 17,8 59 189 83 0 10 1,5 14,8 16
30.9.2022 16:00 18,2 18,3 101 156 75 0 1 2,6 13,7 15,5
30.9.2022 15:30 18,1 18,6 205 175 73 0 0 3,2 13,8 15,7
30.9.2022 15:00 18 18,8 234 75 73 0 0 2,4 13,8 15,7
30.9.2022 14:30 17,8 18,7 344 22 73 0 0 3,5 13,7 15,6
30.9.2022 14:00 17,5 18,7 549 109 72 0 0 3,3 13,6 15,6
30.9.2022 13:30 17,2 17,9 491 130 74 0 0 4,4 13,1 15
30.9.2022 13:00 16,9 18,1 651 77 72 0 0 3,5 13,1 15,1
30.9.2022 12:30 16,6 17,2 526 5 76 0 0 2,9 13 14,7
30.9.2022 12:00 16,2 16,9 634 139 78 0 0 3,6 13,1 14,6
30.9.2022 11:30 15,9 16,2 662 107 80 0 0 2,3 12,8 14,2
30.9.2022 11:00 15,6 14,7 339 95 86 0 0 2,2 12,5 13,4
30.9.2022 10:30 15,3 15,2 471 176 82 0 0 2,6 12,2 13,5
30.9.2022 10:00 15,2 13,8 563 304 91 0 0 2,5 12,4 13
30.9.2022 9:30 15,1 12,5 352 319 98 0 0 4,6 12,2 12,3
30.9.2022 9:00 15 11,5 150 276 100 0 2 2,7 11,5 11,5
30.9.2022 8:30 15 10,9 103 264 100 0 4 1,5 10,9 10,9
30.9.2022 8:00 15 10,5 32 299 100 0 4 2,3 10,5 10,5
30.9.2022 7:30 15 10,3 8 277 100 0,2 4 2,8 10,3 10,3
30.9.2022 7:00 15 10,2 1 279 100 0 3 0,3 10,2 10,2
30.9.2022 6:30 15 10,2 0 144 100 0 4 0,6 10,2 10,2
30.9.2022 6:00 15 10,3 0 203 100 0 4 1,2 10,3 10,3
30.9.2022 5:30 15 10,3 0 318 100 0,2 4 1,5 10,3 10,3
30.9.2022 5:00 15,1 10,3 0 323 100 0 3 1,5 10,3 10,3
30.9.2022 4:30 15,1 10,3 0 106 100 0,2 3 1,8 10,3 10,3
30.9.2022 4:00 15,2 10,3 0 105 100 3,2 4 2,4 10,3 10,4
30.9.2022 3:30 15,2 10,6 0 301 100 0,4 9 5,2 10,6 10,6
30.9.2022 3:00 15,2 10,5 0 339 100 0,2 8 2 10,5 10,5
30.9.2022 2:30 15,2 10,5 0 284 100 0 7 1 10,5 10,5
30.9.2022 2:00 15,2 10,4 0 166 100 0 7 0,9 10,4 10,5
30.9.2022 1:30 15,2 10,4 0 133 100 0 7 0,5 10,4 10,4
30.9.2022 1:00 15,2 10,4 0 122 100 0 8 0,9 10,4 10,4
30.9.2022 0:30 15,3 10,4 0 25 100 0 8 0,7 10,4 10,4
30.9.2022 0:00 15,3 10,3 0 308 100 0 6 0,5 10,3 10,3
29.9.2022 23:30 15,3 10,3 0 184 100 0 6 1,1 10,3 10,3
29.9.2022 23:00 15,3 10,3 0 202 100 0 5 1,3 10,3 10,3
29.9.2022 22:30 15,3 10,2 0 329 100 0 4 1 10,2 10,3
29.9.2022 22:00 15,3 10,2 0 265 100 0 4 0,2 10,2 10,2
29.9.2022 21:30 15,3 10,2 0 140 100 0,2 4 0,9 10,2 10,2
29.9.2022 21:00 15,4 10,1 0 71 100 0 3 0,4 10,1 10,2
29.9.2022 20:30 15,4 10,1 0 77 100 0,6 3 1,7 10,1 10,1
29.9.2022 20:00 15,5 10,1 0 60 100 2,4 4 2,6 10,1 10,1
29.9.2022 19:30 15,5 10,1 0 184 100 0,4 5 2,4 10,1 10,2
29.9.2022 19:00 15,6 10,1 0 110 100 0,2 6 3,1 10,1 10,1
29.9.2022 18:30 15,6 10 2 11 100 0 5 2,7 10 10
29.9.2022 18:00 15,7 9,9 9 217 100 0,8 4 2,4 9,9 9,9
29.9.2022 17:30 15,8 10 11 75 100 3,8 8 1,9 10 10
29.9.2022 17:00 15,8 10,3 18 353 100 0,2 8 3,7 10,3 10,3
29.9.2022 16:30 15,8 10,3 33 151 100 0 8 2,3 10,3 10,3